createdAt,value
2022-08-28T00:02:37.629Z,100163.94
2022-08-28T00:05:40.859Z,100167.59
2022-08-28T00:08:43.885Z,100175.69
2022-08-28T00:11:47.230Z,100184.38
2022-08-28T00:14:51.506Z,100185.19
2022-08-28T00:17:55.146Z,100190.72
2022-08-28T00:20:59.666Z,100192.28
2022-08-28T00:24:02.695Z,100195.28
2022-08-28T00:27:24.414Z,100191.28
2022-08-28T00:30:33.559Z,100197.94
2022-08-28T00:33:36.724Z,100194.31
2022-08-28T00:36:41.361Z,100196.31
2022-08-28T00:39:44.420Z,100194.66
2022-08-28T00:42:48.336Z,100197.50
2022-08-28T00:45:52.719Z,100186.75
2022-08-28T00:48:55.953Z,100186.44
2022-08-28T00:52:11.966Z,100179.53
2022-08-28T00:55:19.650Z,100185.13
2022-08-28T00:58:22.674Z,100179.84
2022-08-28T01:01:27.051Z,100175.56
2022-08-28T01:04:32.633Z,100175.06
2022-08-28T01:07:36.645Z,100176.56
2022-08-28T01:10:41.766Z,100173.63
2022-08-28T01:13:49.787Z,100174.78
2022-08-28T01:16:56.178Z,100177.59
2022-08-28T01:20:06.697Z,100179.09
2022-08-28T01:23:21.517Z,100183.41
2022-08-28T01:26:28.392Z,100194.97
2022-08-28T01:29:31.884Z,100192.97
2022-08-28T01:32:37.632Z,100201.91
2022-08-28T01:35:44.919Z,100213.47
2022-08-28T01:38:54.666Z,100211.31
2022-08-28T01:42:00.680Z,100221.72
2022-08-28T01:45:03.731Z,100219.38
2022-08-28T01:48:08.623Z,100220.22
2022-08-28T01:51:13.471Z,100216.25
2022-08-28T01:54:16.644Z,100224.53
2022-08-28T01:57:21.252Z,100220.84
2022-08-28T02:00:27.600Z,100225.84
2022-08-28T02:03:31.031Z,100222.84
2022-08-28T02:06:37.849Z,100225.47
2022-08-28T02:09:41.033Z,100223.34
2022-08-28T02:12:45.654Z,100228.47
2022-08-28T02:15:49.000Z,100225.66
2022-08-28T02:18:52.126Z,100223.19
2022-08-28T02:21:55.247Z,100216.44
2022-08-28T02:24:58.282Z,100213.94
2022-08-28T02:28:03.110Z,100209.66
2022-08-28T02:31:08.311Z,100210.28
2022-08-28T02:34:11.997Z,100209.31
2022-08-28T02:37:15.513Z,100206.03
2022-08-28T02:40:22.572Z,100204.03
2022-08-28T02:43:27.095Z,100201.38
2022-08-28T02:46:30.188Z,100205.66
2022-08-28T02:49:36.253Z,100205.34
2022-08-28T02:52:40.517Z,100204.72
2022-08-28T02:55:43.599Z,100212.28
2022-08-28T02:58:47.933Z,100211.44
2022-08-28T03:01:51.098Z,100214.25
2022-08-28T03:04:54.493Z,100211.94
2022-08-28T03:07:57.659Z,100218.88
2022-08-28T03:11:01.874Z,100228.75
2022-08-28T03:14:07.083Z,100219.53
2022-08-28T03:17:10.554Z,100215.91
2022-08-28T03:20:16.037Z,100228.94
2022-08-28T03:23:27.964Z,100237.56
2022-08-28T03:26:31.187Z,100246.78
2022-08-28T03:29:35.954Z,100244.66
2022-08-28T03:32:39.346Z,100245.97
2022-08-28T03:35:42.319Z,100250.91
2022-08-28T03:38:45.457Z,100251.09
2022-08-28T03:41:48.523Z,100250.25
2022-08-28T03:44:54.422Z,100258.81
2022-08-28T03:47:57.425Z,100260.97
2022-08-28T03:51:01.441Z,100261.94
2022-08-28T03:54:06.075Z,100257.66
2022-08-28T03:57:09.083Z,100266.91
2022-08-28T04:00:15.105Z,100266.72
2022-08-28T04:03:18.764Z,100272.97
2022-08-28T04:06:21.810Z,100287.31
2022-08-28T04:09:24.947Z,100293.06
2022-08-28T04:12:28.130Z,100290.44
2022-08-28T04:15:37.230Z,100293.09
2022-08-28T04:18:43.010Z,100301.97
2022-08-28T04:21:46.589Z,100299.00
2022-08-28T04:24:50.178Z,100307.91
2022-08-28T04:27:53.421Z,100317.94
2022-08-28T04:30:57.932Z,100332.94
2022-08-28T04:34:02.253Z,100334.88
2022-08-28T04:37:05.458Z,100342.44
2022-08-28T04:40:11.631Z,100348.03
2022-08-28T04:43:14.870Z,100348.22
2022-08-28T04:46:20.484Z,100348.06
2022-08-28T04:49:25.948Z,100357.91
2022-08-28T04:52:29.047Z,100352.97
2022-08-28T04:55:52.267Z,100355.75
2022-08-28T04:58:55.602Z,100363.16
2022-08-28T05:01:59.995Z,100365.28
2022-08-28T05:05:03.276Z,100374.19
2022-08-28T05:08:06.402Z,100389.63
2022-08-28T05:11:22.096Z,100375.66
2022-08-28T05:14:37.277Z,100383.38
2022-08-28T05:17:41.862Z,100393.75
2022-08-28T05:20:47.417Z,100401.81
2022-08-28T05:23:53.882Z,100404.16
2022-08-28T05:26:57.470Z,100405.63
2022-08-28T05:30:02.096Z,100403.28
2022-08-28T05:33:08.792Z,100417.63
2022-08-28T05:36:13.486Z,100429.50
2022-08-28T05:39:17.775Z,100432.44
2022-08-28T05:42:20.773Z,100435.88
2022-08-28T05:45:23.961Z,100441.09
2022-08-28T05:48:30.386Z,100458.19
2022-08-28T05:51:40.782Z,100449.31
2022-08-28T05:54:44.292Z,100444.72
2022-08-28T05:57:47.273Z,100447.03
2022-08-28T06:00:50.589Z,100449.50
2022-08-28T06:03:57.879Z,100461.13
2022-08-28T06:07:00.938Z,100474.56
2022-08-28T06:10:05.330Z,100471.47
2022-08-28T06:13:10.105Z,100469.31
2022-08-28T06:16:14.021Z,100472.94
2022-08-28T06:19:19.246Z,100475.19
2022-08-28T06:22:22.211Z,100486.97
2022-08-28T06:25:25.472Z,100494.16
2022-08-28T06:28:29.430Z,100502.31
2022-08-28T06:31:33.755Z,100493.88
2022-08-28T06:34:38.303Z,100491.00
2022-08-28T06:37:41.518Z,100496.91
2022-08-28T06:40:47.310Z,100505.00
2022-08-28T06:43:51.317Z,100524.28
2022-08-28T06:46:55.781Z,100546.25
2022-08-28T06:50:00.163Z,100554.81
2022-08-28T06:53:03.423Z,100557.53
2022-08-28T06:56:11.183Z,100573.03
2022-08-28T06:59:16.674Z,100577.03
2022-08-28T07:02:20.171Z,100580.25
2022-08-28T07:05:26.348Z,100570.22
2022-08-28T07:08:31.143Z,100569.31
2022-08-28T07:11:36.015Z,100578.22
2022-08-28T07:14:39.029Z,100594.50
2022-08-28T07:17:42.198Z,100597.13
2022-08-28T07:20:47.111Z,100621.38
2022-08-28T07:23:50.430Z,100635.53
2022-08-28T07:26:54.331Z,100642.44
2022-08-28T07:29:58.424Z,100672.63
2022-08-28T07:33:01.427Z,100672.44
2022-08-28T07:36:07.634Z,100677.41
2022-08-28T07:39:13.412Z,100696.31
2022-08-28T07:42:36.399Z,100696.53
2022-08-28T07:45:38.442Z,100675.84
2022-08-28T07:48:42.871Z,100691.72
2022-08-28T07:51:47.312Z,100721.06
2022-08-28T07:54:50.279Z,100706.69
2022-08-28T07:57:53.366Z,100746.84
2022-08-28T08:00:59.882Z,100728.66
2022-08-28T08:04:03.253Z,100736.25
2022-08-28T08:07:08.669Z,100736.44
2022-08-28T08:10:14.831Z,100764.31
2022-08-28T08:13:22.990Z,100747.63
2022-08-28T08:16:27.212Z,100766.53
2022-08-28T08:19:30.248Z,100740.09
2022-08-28T08:22:35.807Z,100745.00
2022-08-28T08:25:38.780Z,100745.03
2022-08-28T08:28:43.365Z,100767.00
2022-08-28T08:31:47.256Z,100770.81
2022-08-28T08:34:54.320Z,100756.88
2022-08-28T08:38:02.690Z,100777.22
2022-08-28T08:41:14.395Z,100761.84
2022-08-28T08:44:33.812Z,100784.03
2022-08-28T08:47:43.868Z,100786.84
2022-08-28T08:50:47.302Z,100792.13
2022-08-28T08:54:04.728Z,100771.66
2022-08-28T08:57:11.704Z,100781.00
2022-08-28T09:00:16.346Z,100794.53
2022-08-28T09:03:24.953Z,100778.19
2022-08-28T09:06:37.661Z,100754.22
2022-08-28T09:09:46.362Z,100766.59
2022-08-28T09:12:56.954Z,100776.84
2022-08-28T09:16:01.367Z,100808.50
2022-08-28T09:19:06.033Z,100803.22
2022-08-28T09:22:09.126Z,100808.53
2022-08-28T09:25:51.531Z,100840.09
2022-08-28T09:29:05.651Z,100837.84
2022-08-28T09:32:23.606Z,100820.78
2022-08-28T09:35:29.877Z,100840.53
2022-08-28T09:38:32.870Z,100833.72
2022-08-28T09:41:58.371Z,100835.81
2022-08-28T09:45:09.537Z,100836.22
2022-08-28T09:48:22.178Z,100825.22
2022-08-28T09:51:30.693Z,100841.94
2022-08-28T09:54:40.786Z,100832.59
2022-08-28T09:57:46.963Z,100823.00
2022-08-28T10:00:57.988Z,100812.63
2022-08-28T10:04:19.239Z,100840.25
2022-08-28T10:07:31.982Z,100841.38
2022-08-28T10:10:42.794Z,100856.91
2022-08-28T10:13:57.044Z,100851.78
2022-08-28T10:17:11.873Z,100839.97
2022-08-28T10:20:21.521Z,100838.97
2022-08-28T10:23:36.379Z,100850.06
2022-08-28T10:26:48.112Z,100844.44
2022-08-28T10:30:12.420Z,100843.31
2022-08-28T10:33:37.562Z,100827.50
2022-08-28T10:36:40.903Z,100826.94
2022-08-28T10:39:52.814Z,100823.72
2022-08-28T10:43:03.351Z,100830.03
2022-08-28T10:46:13.582Z,100835.63
2022-08-28T10:49:27.196Z,100836.41
2022-08-28T10:52:37.184Z,100828.41
2022-08-28T10:55:50.863Z,100851.84
2022-08-28T10:59:00.313Z,100854.56
2022-08-28T11:02:09.001Z,100836.38
2022-08-28T11:05:14.310Z,100858.41
2022-08-28T11:08:27.885Z,100849.81
2022-08-28T11:11:45.024Z,100838.63
2022-08-28T11:14:51.025Z,100837.22
2022-08-28T11:17:55.365Z,100856.75
2022-08-28T11:21:09.104Z,100850.13
2022-08-28T11:24:29.558Z,100848.97
2022-08-28T11:27:36.431Z,100843.28
2022-08-28T11:30:40.758Z,100847.28
2022-08-28T11:33:45.469Z,100838.50
2022-08-28T11:37:03.569Z,100857.00
2022-08-28T11:40:19.129Z,100859.16
2022-08-28T11:43:41.355Z,100896.84
2022-08-28T11:46:47.451Z,100891.97
2022-08-28T11:49:51.018Z,100882.47
2022-08-28T11:53:39.347Z,100893.44
2022-08-28T11:56:54.959Z,100889.59
2022-08-28T12:00:07.788Z,100884.66
2022-08-28T12:03:15.411Z,100884.78
2022-08-28T12:06:53.851Z,100881.03
2022-08-28T12:10:04.290Z,100873.56
2022-08-28T12:13:09.691Z,100887.69
2022-08-28T12:16:15.812Z,100888.03
2022-08-28T12:19:28.756Z,100877.28
2022-08-28T12:22:49.940Z,100885.72
2022-08-28T12:26:04.149Z,100886.47
2022-08-28T12:29:27.082Z,100888.63
2022-08-28T12:32:36.346Z,100875.94
2022-08-28T12:35:39.467Z,100891.03
2022-08-28T12:38:52.255Z,100902.13
2022-08-28T12:41:56.843Z,100875.72
2022-08-28T12:45:06.893Z,100890.28
2022-08-28T12:48:18.420Z,100907.53
2022-08-28T12:51:24.534Z,100904.25
2022-08-28T12:54:27.527Z,100901.72
2022-08-28T12:57:33.791Z,100895.00
2022-08-28T13:00:37.289Z,100908.44
2022-08-28T13:03:47.276Z,100918.22
2022-08-28T13:06:50.284Z,100900.03
2022-08-28T13:09:57.053Z,100891.50
2022-08-28T13:13:07.271Z,100901.50
2022-08-28T13:16:11.973Z,100905.66
2022-08-28T13:19:27.881Z,100898.28
2022-08-28T13:22:38.516Z,100906.38
2022-08-28T13:25:41.603Z,100903.09
2022-08-28T13:28:45.945Z,100894.28
2022-08-28T13:31:59.774Z,100894.50
2022-08-28T13:35:38.098Z,100904.31
2022-08-28T13:38:41.062Z,100891.31
2022-08-28T13:41:47.914Z,100895.03
2022-08-28T13:44:56.130Z,100905.22
2022-08-28T13:48:00.015Z,100926.25
2022-08-28T13:51:10.739Z,100910.84
2022-08-28T13:54:14.542Z,100942.78
2022-08-28T13:57:17.577Z,100965.72
2022-08-28T14:00:22.338Z,100982.00
2022-08-28T14:03:37.889Z,100992.84
2022-08-28T14:06:44.390Z,100995.88
2022-08-28T14:09:47.470Z,101007.50
2022-08-28T14:12:51.110Z,101058.13
2022-08-28T14:15:55.922Z,101082.31
2022-08-28T14:19:04.002Z,101106.69
2022-08-28T14:22:07.238Z,101100.38
2022-08-28T14:25:12.290Z,101108.75
2022-08-28T14:28:16.458Z,101121.75
2022-08-28T14:31:22.173Z,101126.88
2022-08-28T14:34:29.606Z,101135.50
2022-08-28T14:37:33.174Z,101148.13
2022-08-28T14:40:38.199Z,101129.47
2022-08-28T14:43:41.325Z,101120.94
2022-08-28T14:46:47.726Z,101138.09
2022-08-28T14:49:52.439Z,101135.56
2022-08-28T14:52:55.678Z,101140.38
2022-08-28T14:55:59.063Z,101137.09
2022-08-28T14:59:05.752Z,101138.53
2022-08-28T15:02:10.211Z,101131.16
2022-08-28T15:05:13.243Z,101128.47
2022-08-28T15:08:18.705Z,101167.75
2022-08-28T15:11:25.540Z,101146.22
2022-08-28T15:14:28.854Z,101131.44
2022-08-28T15:17:33.819Z,101146.03
2022-08-28T15:20:39.766Z,101137.19
2022-08-28T15:23:43.048Z,101163.03
2022-08-28T15:26:46.896Z,101149.53
2022-08-28T15:29:49.875Z,101126.56
2022-08-28T15:32:54.295Z,101148.41
2022-08-28T15:35:58.103Z,101139.66
2022-08-28T15:39:18.979Z,101144.41
2022-08-28T15:42:23.226Z,101150.47
2022-08-28T15:45:26.824Z,101146.50
2022-08-28T15:48:33.239Z,101148.72
2022-08-28T15:51:36.987Z,101123.97
2022-08-28T15:54:40.828Z,101128.19
2022-08-28T15:57:44.124Z,101126.66
2022-08-28T16:00:47.159Z,101106.47
2022-08-28T16:03:51.611Z,101108.00
2022-08-28T16:07:00.426Z,101116.91
2022-08-28T16:10:07.023Z,101117.00
2022-08-28T16:13:10.168Z,101091.47
2022-08-28T16:16:13.572Z,101085.16
2022-08-28T16:19:17.888Z,101097.56
2022-08-28T16:22:20.961Z,101104.13
2022-08-28T16:25:24.280Z,101105.34
2022-08-28T16:28:27.624Z,101087.09
2022-08-28T16:31:30.714Z,101077.94
2022-08-28T16:34:36.954Z,101075.13
2022-08-28T16:37:40.366Z,101100.88
2022-08-28T16:40:43.745Z,101091.13
2022-08-28T16:43:48.268Z,101093.16
2022-08-28T16:46:51.294Z,101071.94
2022-08-28T16:49:59.088Z,101079.94
2022-08-28T16:53:06.817Z,101107.16
2022-08-28T16:56:11.185Z,101085.56
2022-08-28T16:59:16.464Z,101081.63
2022-08-28T17:02:22.928Z,101097.53
2022-08-28T17:05:27.654Z,101092.25
2022-08-28T17:08:30.663Z,101086.94
2022-08-28T17:11:33.690Z,101100.72
2022-08-28T17:14:37.044Z,101094.25
2022-08-28T17:17:41.918Z,101106.69
2022-08-28T17:21:03.856Z,101113.28
2022-08-28T17:24:08.163Z,101103.38
2022-08-28T17:27:11.231Z,101085.97
2022-08-28T17:30:15.597Z,101098.06
2022-08-28T17:33:18.580Z,101112.31
2022-08-28T17:36:33.820Z,101131.31
2022-08-28T17:39:37.516Z,101123.72
2022-08-28T17:42:41.559Z,101127.00
2022-08-28T17:45:44.592Z,101118.41
2022-08-28T17:48:54.330Z,101134.28
2022-08-28T17:52:00.648Z,101119.03
2022-08-28T17:55:04.728Z,101142.50
2022-08-28T17:58:07.854Z,101121.44
2022-08-28T18:01:11.223Z,101133.19
2022-08-28T18:04:21.611Z,101125.41
2022-08-28T18:07:28.452Z,101117.47
2022-08-28T18:10:33.550Z,101120.38
2022-08-28T18:13:36.562Z,101112.91
2022-08-28T18:16:40.177Z,101117.00
2022-08-28T18:19:44.151Z,101111.19
2022-08-28T18:22:49.710Z,101110.16
2022-08-28T18:25:53.032Z,101136.19
2022-08-28T18:28:56.263Z,101110.47
2022-08-28T18:32:01.702Z,101105.09
2022-08-28T18:35:05.572Z,101123.63
2022-08-28T18:38:10.363Z,101119.00
2022-08-28T18:41:13.645Z,101123.09
2022-08-28T18:44:18.403Z,101122.41
2022-08-28T18:47:24.276Z,101117.94
2022-08-28T18:50:28.311Z,101140.69
2022-08-28T18:53:32.727Z,101133.75
2022-08-28T18:56:38.363Z,101136.75
2022-08-28T18:59:41.602Z,101171.75
2022-08-28T19:02:45.253Z,101178.69
2022-08-28T19:05:49.467Z,101176.88
2022-08-28T19:08:53.790Z,101203.53
2022-08-28T19:11:57.234Z,101198.94
2022-08-28T19:15:00.889Z,101200.34
2022-08-28T19:18:05.422Z,101201.78
2022-08-28T19:21:14.943Z,101215.44
2022-08-28T19:24:22.410Z,101216.88
2022-08-28T19:27:25.469Z,101226.00
2022-08-28T19:30:33.021Z,101233.88
2022-08-28T19:33:36.294Z,101236.94
2022-08-28T19:36:40.202Z,101240.84
2022-08-28T19:39:47.638Z,101238.53
2022-08-28T19:43:00.716Z,101240.13
2022-08-28T19:46:09.526Z,101247.81
2022-08-28T19:49:17.448Z,101248.25
2022-08-28T19:52:20.611Z,101245.34
2022-08-28T19:55:27.944Z,101242.41
2022-08-28T19:58:30.966Z,101239.97
2022-08-28T20:01:38.677Z,101224.16
2022-08-28T20:04:41.716Z,101235.16
2022-08-28T20:07:44.764Z,101240.06
2022-08-28T20:10:49.337Z,101242.56
2022-08-28T20:13:53.042Z,101249.94
2022-08-28T20:16:56.096Z,101247.03
2022-08-28T20:20:02.338Z,101242.75
2022-08-28T20:23:07.360Z,101240.56
2022-08-28T20:26:12.340Z,101247.22
2022-08-28T20:29:15.859Z,101254.88
2022-08-28T20:32:18.875Z,101257.50
2022-08-28T20:35:22.509Z,101251.81
2022-08-28T20:38:31.775Z,101256.28
2022-08-28T20:41:37.940Z,101247.94
2022-08-28T20:44:41.099Z,101267.91
2022-08-28T20:47:45.558Z,101252.09
2022-08-28T20:50:49.620Z,101256.53
2022-08-28T20:53:58.188Z,101252.22
2022-08-28T20:57:06.041Z,101266.50
2022-08-28T21:00:12.838Z,101252.78
2022-08-28T21:03:15.872Z,101248.38
2022-08-28T21:06:19.123Z,101234.34
2022-08-28T21:09:23.400Z,101216.59
2022-08-28T21:12:47.675Z,101244.31
2022-08-28T21:15:50.623Z,101242.66
2022-08-28T21:19:14.492Z,101233.38
2022-08-28T21:22:16.565Z,101252.34
2022-08-28T21:25:24.464Z,101250.41
2022-08-28T21:28:29.476Z,101256.63
2022-08-28T21:31:32.485Z,101250.41
2022-08-28T21:34:35.467Z,101257.59
2022-08-28T21:37:39.732Z,101253.75
2022-08-28T21:40:43.026Z,101236.53
2022-08-28T21:43:48.112Z,101247.47
2022-08-28T21:46:51.182Z,101248.44
2022-08-28T21:49:57.055Z,101248.59
2022-08-28T21:53:00.115Z,101233.22
2022-08-28T21:56:03.621Z,101231.81
2022-08-28T21:59:08.104Z,101230.97
2022-08-28T22:02:11.133Z,101236.66
2022-08-28T22:05:14.677Z,101234.00
2022-08-28T22:08:19.962Z,101234.00
2022-08-28T22:11:25.079Z,101239.28
2022-08-28T22:14:29.994Z,101228.16
2022-08-28T22:17:32.966Z,101239.72
2022-08-28T22:20:58.838Z,101233.22
2022-08-28T22:24:01.152Z,101230.31
2022-08-28T22:27:04.770Z,101240.84
2022-08-28T22:30:10.887Z,101227.13
2022-08-28T22:33:14.257Z,101223.78
2022-08-28T22:36:17.849Z,101228.75
2022-08-28T22:39:20.860Z,101222.28
2022-08-28T22:42:24.058Z,101220.28
2022-08-28T22:45:28.401Z,101234.25
2022-08-28T22:48:31.768Z,101225.25
2022-08-28T22:51:35.553Z,101251.03
2022-08-28T22:54:39.370Z,101244.69
2022-08-28T22:57:42.846Z,101250.22
2022-08-28T23:00:47.133Z,101259.34
2022-08-28T23:03:51.240Z,101272.94
2022-08-28T23:06:54.620Z,101260.81
2022-08-28T23:09:57.866Z,101253.03
2022-08-28T23:13:00.865Z,101254.97
2022-08-28T23:16:05.430Z,101231.69
2022-08-28T23:19:13.044Z,101220.44
2022-08-28T23:22:17.024Z,101212.94
2022-08-28T23:25:24.389Z,101203.34
2022-08-28T23:28:27.375Z,101208.69
2022-08-28T23:31:31.777Z,101220.38
2022-08-28T23:34:35.636Z,101207.53
2022-08-28T23:37:45.533Z,101197.50
2022-08-28T23:40:51.085Z,101215.91
2022-08-28T23:43:54.516Z,101190.63
2022-08-28T23:46:58.913Z,101206.50
2022-08-28T23:50:02.758Z,101214.94
2022-08-28T23:53:06.185Z,101210.09
2022-08-28T23:56:11.096Z,101216.59
2022-08-28T23:59:15.882Z,101210.38
